sensor_id;sensor_type;location;lat;lon;timestamp;P1;durP1;ratioP1;P2;durP2;ratioP2
35048;SDS011;21236;48.740;-3.446;2022-12-18T00:03:52;41.47;;;18.25;;
35048;SDS011;21236;48.740;-3.446;2022-12-18T00:06:19;40.40;;;20.08;;
35048;SDS011;21236;48.740;-3.446;2022-12-18T00:08:45;41.67;;;19.05;;
35048;SDS011;21236;48.740;-3.446;2022-12-18T00:11:13;40.33;;;17.83;;
35048;SDS011;21236;48.740;-3.446;2022-12-18T00:13:39;42.83;;;17.55;;
35048;SDS011;21236;48.740;-3.446;2022-12-18T00:16:09;40.30;;;18.85;;
35048;SDS011;21236;48.740;-3.446;2022-12-18T00:18:36;39.38;;;18.42;;
35048;SDS011;21236;48.740;-3.446;2022-12-18T00:21:03;43.45;;;18.90;;
35048;SDS011;21236;48.740;-3.446;2022-12-18T00:23:29;46.58;;;22.52;;
35048;SDS011;21236;48.740;-3.446;2022-12-18T00:25:59;40.53;;;19.83;;
35048;SDS011;21236;48.740;-3.446;2022-12-18T00:28:26;42.75;;;19.40;;
35048;SDS011;21236;48.740;-3.446;2022-12-18T00:30:59;39.83;;;17.48;;
35048;SDS011;21236;48.740;-3.446;2022-12-18T00:33:25;43.85;;;18.88;;
35048;SDS011;21236;48.740;-3.446;2022-12-18T00:35:51;38.08;;;19.10;;
35048;SDS011;21236;48.740;-3.446;2022-12-18T00:38:17;37.72;;;19.65;;
35048;SDS011;21236;48.740;-3.446;2022-12-18T00:40:43;39.30;;;19.13;;
35048;SDS011;21236;48.740;-3.446;2022-12-18T00:43:11;41.20;;;19.08;;
35048;SDS011;21236;48.740;-3.446;2022-12-18T00:45:37;39.83;;;18.35;;
35048;SDS011;21236;48.740;-3.446;2022-12-18T00:48:03;44.65;;;19.40;;
35048;SDS011;21236;48.740;-3.446;2022-12-18T00:50:30;43.15;;;18.73;;
35048;SDS011;21236;48.740;-3.446;2022-12-18T00:52:56;37.85;;;18.30;;
35048;SDS011;21236;48.740;-3.446;2022-12-18T00:55:22;39.47;;;17.50;;
35048;SDS011;21236;48.740;-3.446;2022-12-18T00:57:48;38.53;;;17.95;;
35048;SDS011;21236;48.740;-3.446;2022-12-18T01:00:16;39.75;;;18.55;;
35048;SDS011;21236;48.740;-3.446;2022-12-18T01:02:43;40.20;;;19.23;;
35048;SDS011;21236;48.740;-3.446;2022-12-18T01:05:10;41.90;;;18.63;;
35048;SDS011;21236;48.740;-3.446;2022-12-18T01:07:36;41.00;;;19.30;;
35048;SDS011;21236;48.740;-3.446;2022-12-18T01:10:03;42.90;;;18.23;;
35048;SDS011;21236;48.740;-3.446;2022-12-18T01:12:30;36.95;;;18.10;;
35048;SDS011;21236;48.740;-3.446;2022-12-18T01:14:56;39.92;;;19.70;;
35048;SDS011;21236;48.740;-3.446;2022-12-18T01:17:22;43.08;;;18.92;;
35048;SDS011;21236;48.740;-3.446;2022-12-18T01:19:48;40.10;;;19.73;;
35048;SDS011;21236;48.740;-3.446;2022-12-18T01:22:14;41.60;;;18.27;;
35048;SDS011;21236;48.740;-3.446;2022-12-18T01:24:40;40.78;;;18.75;;
35048;SDS011;21236;48.740;-3.446;2022-12-18T01:27:06;42.40;;;19.73;;
35048;SDS011;21236;48.740;-3.446;2022-12-18T01:29:33;47.25;;;19.73;;
35048;SDS011;21236;48.740;-3.446;2022-12-18T01:31:59;46.78;;;20.45;;
35048;SDS011;21236;48.740;-3.446;2022-12-18T01:34:25;42.00;;;18.45;;
35048;SDS011;21236;48.740;-3.446;2022-12-18T01:36:51;38.95;;;18.98;;
35048;SDS011;21236;48.740;-3.446;2022-12-18T01:39:17;40.75;;;20.65;;
35048;SDS011;21236;48.740;-3.446;2022-12-18T01:41:44;43.95;;;20.10;;
35048;SDS011;21236;48.740;-3.446;2022-12-18T01:47:18;38.55;;;18.63;;
35048;SDS011;21236;48.740;-3.446;2022-12-18T01:49:44;42.80;;;20.33;;
35048;SDS011;21236;48.740;-3.446;2022-12-18T01:52:10;39.47;;;20.00;;
35048;SDS011;21236;48.740;-3.446;2022-12-18T01:54:36;49.78;;;19.60;;
35048;SDS011;21236;48.740;-3.446;2022-12-18T01:57:02;43.70;;;19.88;;
35048;SDS011;21236;48.740;-3.446;2022-12-18T01:59:29;48.10;;;21.10;;
35048;SDS011;21236;48.740;-3.446;2022-12-18T02:01:57;39.95;;;19.58;;
35048;SDS011;21236;48.740;-3.446;2022-12-18T02:04:25;42.05;;;19.77;;
35048;SDS011;21236;48.740;-3.446;2022-12-18T02:07:01;40.65;;;19.58;;
35048;SDS011;21236;48.740;-3.446;2022-12-18T02:09:34;42.42;;;19.30;;
35048;SDS011;21236;48.740;-3.446;2022-12-18T02:17:10;43.88;;;18.63;;
35048;SDS011;21236;48.740;-3.446;2022-12-18T02:24:44;45.33;;;19.50;;
35048;SDS011;21236;48.740;-3.446;2022-12-18T02:27:14;43.22;;;20.50;;
35048;SDS011;21236;48.740;-3.446;2022-12-18T02:29:42;42.30;;;19.23;;
35048;SDS011;21236;48.740;-3.446;2022-12-18T02:32:11;43.00;;;20.10;;
35048;SDS011;21236;48.740;-3.446;2022-12-18T02:34:39;46.22;;;20.02;;
35048;SDS011;21236;48.740;-3.446;2022-12-18T02:37:11;41.03;;;20.05;;
35048;SDS011;21236;48.740;-3.446;2022-12-18T02:39:40;44.88;;;20.83;;
35048;SDS011;21236;48.740;-3.446;2022-12-18T02:42:09;40.25;;;19.67;;
35048;SDS011;21236;48.740;-3.446;2022-12-18T02:47:30;41.60;;;20.10;;
35048;SDS011;21236;48.740;-3.446;2022-12-18T03:00:06;41.97;;;20.50;;
35048;SDS011;21236;48.740;-3.446;2022-12-18T03:02:39;43.42;;;19.98;;
35048;SDS011;21236;48.740;-3.446;2022-12-18T03:07:41;41.00;;;19.40;;
35048;SDS011;21236;48.740;-3.446;2022-12-18T03:10:11;43.05;;;20.30;;
35048;SDS011;21236;48.740;-3.446;2022-12-18T03:12:40;38.88;;;18.42;;
35048;SDS011;21236;48.740;-3.446;2022-12-18T03:15:17;45.13;;;20.05;;
35048;SDS011;21236;48.740;-3.446;2022-12-18T03:17:50;44.17;;;20.63;;
35048;SDS011;21236;48.740;-3.446;2022-12-18T03:20:19;42.10;;;20.23;;
35048;SDS011;21236;48.740;-3.446;2022-12-18T03:22:46;43.17;;;18.45;;
35048;SDS011;21236;48.740;-3.446;2022-12-18T03:25:15;42.88;;;19.88;;
35048;SDS011;21236;48.740;-3.446;2022-12-18T03:27:44;45.45;;;20.65;;
35048;SDS011;21236;48.740;-3.446;2022-12-18T03:30:14;42.05;;;18.60;;
35048;SDS011;21236;48.740;-3.446;2022-12-18T03:35:30;46.25;;;20.20;;
35048;SDS011;21236;48.740;-3.446;2022-12-18T03:37:57;43.33;;;18.80;;
35048;SDS011;21236;48.740;-3.446;2022-12-18T03:40:26;46.90;;;21.15;;
35048;SDS011;21236;48.740;-3.446;2022-12-18T03:45:52;46.13;;;22.35;;
35048;SDS011;21236;48.740;-3.446;2022-12-18T03:48:26;45.15;;;19.05;;
35048;SDS011;21236;48.740;-3.446;2022-12-18T03:53:25;39.33;;;18.65;;
35048;SDS011;21236;48.740;-3.446;2022-12-18T03:55:53;44.90;;;20.20;;
35048;SDS011;21236;48.740;-3.446;2022-12-18T03:58:23;41.97;;;21.52;;
35048;SDS011;21236;48.740;-3.446;2022-12-18T04:00:58;44.95;;;21.17;;
35048;SDS011;21236;48.740;-3.446;2022-12-18T04:03:26;46.55;;;20.75;;
35048;SDS011;21236;48.740;-3.446;2022-12-18T04:05:55;45.10;;;19.85;;
35048;SDS011;21236;48.740;-3.446;2022-12-18T04:08:23;51.97;;;21.65;;
35048;SDS011;21236;48.740;-3.446;2022-12-18T04:10:59;47.78;;;20.65;;
35048;SDS011;21236;48.740;-3.446;2022-12-18T04:13:29;49.85;;;21.17;;
35048;SDS011;21236;48.740;-3.446;2022-12-18T04:15:59;48.10;;;20.63;;
35048;SDS011;21236;48.740;-3.446;2022-12-18T04:18:26;43.53;;;21.10;;
35048;SDS011;21236;48.740;-3.446;2022-12-18T04:20:53;46.20;;;20.73;;
35048;SDS011;21236;48.740;-3.446;2022-12-18T04:23:19;44.25;;;19.95;;
35048;SDS011;21236;48.740;-3.446;2022-12-18T04:25:46;58.90;;;21.17;;
35048;SDS011;21236;48.740;-3.446;2022-12-18T04:28:19;47.30;;;21.48;;
35048;SDS011;21236;48.740;-3.446;2022-12-18T04:30:45;50.83;;;20.42;;
35048;SDS011;21236;48.740;-3.446;2022-12-18T04:33:12;50.15;;;21.13;;
35048;SDS011;21236;48.740;-3.446;2022-12-18T04:35:41;52.60;;;21.88;;
35048;SDS011;21236;48.740;-3.446;2022-12-18T04:38:08;45.85;;;20.42;;
35048;SDS011;21236;48.740;-3.446;2022-12-18T04:40:35;46.25;;;19.65;;
35048;SDS011;21236;48.740;-3.446;2022-12-18T04:43:09;44.05;;;21.58;;
35048;SDS011;21236;48.740;-3.446;2022-12-18T04:45:35;43.38;;;19.88;;
35048;SDS011;21236;48.740;-3.446;2022-12-18T04:48:02;43.42;;;19.58;;
35048;SDS011;21236;48.740;-3.446;2022-12-18T04:50:28;43.00;;;20.08;;
35048;SDS011;21236;48.740;-3.446;2022-12-18T04:52:54;41.60;;;19.85;;
35048;SDS011;21236;48.740;-3.446;2022-12-18T04:55:21;43.83;;;20.35;;
35048;SDS011;21236;48.740;-3.446;2022-12-18T04:57:47;39.03;;;18.70;;
35048;SDS011;21236;48.740;-3.446;2022-12-18T05:00:13;41.55;;;18.38;;
35048;SDS011;21236;48.740;-3.446;2022-12-18T05:02:40;42.17;;;19.88;;
35048;SDS011;21236;48.740;-3.446;2022-12-18T05:05:06;39.47;;;19.00;;
35048;SDS011;21236;48.740;-3.446;2022-12-18T05:07:32;37.85;;;17.83;;
35048;SDS011;21236;48.740;-3.446;2022-12-18T05:09:58;42.72;;;18.10;;
35048;SDS011;21236;48.740;-3.446;2022-12-18T05:12:24;40.30;;;19.00;;
35048;SDS011;21236;48.740;-3.446;2022-12-18T05:14:50;36.42;;;17.58;;
35048;SDS011;21236;48.740;-3.446;2022-12-18T05:17:17;41.90;;;19.20;;
35048;SDS011;21236;48.740;-3.446;2022-12-18T05:19:43;42.60;;;18.83;;
35048;SDS011;21236;48.740;-3.446;2022-12-18T05:22:09;47.33;;;18.60;;
35048;SDS011;21236;48.740;-3.446;2022-12-18T05:24:35;39.75;;;17.25;;
35048;SDS011;21236;48.740;-3.446;2022-12-18T05:27:01;42.33;;;18.05;;
35048;SDS011;21236;48.740;-3.446;2022-12-18T05:29:27;42.63;;;17.98;;
35048;SDS011;21236;48.740;-3.446;2022-12-18T05:31:53;36.63;;;18.45;;
35048;SDS011;21236;48.740;-3.446;2022-12-18T05:34:20;43.08;;;18.42;;
35048;SDS011;21236;48.740;-3.446;2022-12-18T05:36:46;36.47;;;18.27;;
35048;SDS011;21236;48.740;-3.446;2022-12-18T05:39:12;35.53;;;17.08;;
35048;SDS011;21236;48.740;-3.446;2022-12-18T05:41:38;31.65;;;16.30;;
35048;SDS011;21236;48.740;-3.446;2022-12-18T05:44:05;38.97;;;17.38;;
35048;SDS011;21236;48.740;-3.446;2022-12-18T05:46:31;36.35;;;16.17;;
35048;SDS011;21236;48.740;-3.446;2022-12-18T05:48:59;34.60;;;16.73;;
35048;SDS011;21236;48.740;-3.446;2022-12-18T05:51:26;41.47;;;15.95;;
35048;SDS011;21236;48.740;-3.446;2022-12-18T05:53:52;37.22;;;16.83;;
35048;SDS011;21236;48.740;-3.446;2022-12-18T05:56:19;35.53;;;17.13;;
35048;SDS011;21236;48.740;-3.446;2022-12-18T05:58:46;35.22;;;17.15;;
35048;SDS011;21236;48.740;-3.446;2022-12-18T06:01:13;35.72;;;15.82;;
35048;SDS011;21236;48.740;-3.446;2022-12-18T06:03:39;34.58;;;15.68;;
35048;SDS011;21236;48.740;-3.446;2022-12-18T06:06:13;30.48;;;15.73;;
35048;SDS011;21236;48.740;-3.446;2022-12-18T06:08:39;35.13;;;16.05;;
35048;SDS011;21236;48.740;-3.446;2022-12-18T06:11:05;29.77;;;15.63;;
35048;SDS011;21236;48.740;-3.446;2022-12-18T06:13:32;32.55;;;15.38;;
35048;SDS011;21236;48.740;-3.446;2022-12-18T06:15:58;31.48;;;15.70;;
35048;SDS011;21236;48.740;-3.446;2022-12-18T06:18:24;29.58;;;15.75;;
35048;SDS011;21236;48.740;-3.446;2022-12-18T06:20:59;35.85;;;15.43;;
35048;SDS011;21236;48.740;-3.446;2022-12-18T06:23:25;32.47;;;16.15;;
35048;SDS011;21236;48.740;-3.446;2022-12-18T06:25:52;32.45;;;14.98;;
35048;SDS011;21236;48.740;-3.446;2022-12-18T06:28:18;28.85;;;13.65;;
35048;SDS011;21236;48.740;-3.446;2022-12-18T06:30:45;30.35;;;14.88;;
35048;SDS011;21236;48.740;-3.446;2022-12-18T06:33:11;28.88;;;15.25;;
35048;SDS011;21236;48.740;-3.446;2022-12-18T06:35:37;28.85;;;13.82;;
35048;SDS011;21236;48.740;-3.446;2022-12-18T06:38:03;29.10;;;14.13;;
35048;SDS011;21236;48.740;-3.446;2022-12-18T06:40:29;28.05;;;13.73;;
35048;SDS011;21236;48.740;-3.446;2022-12-18T06:42:55;35.60;;;15.85;;
35048;SDS011;21236;48.740;-3.446;2022-12-18T06:45:22;27.67;;;14.90;;
35048;SDS011;21236;48.740;-3.446;2022-12-18T06:47:48;32.25;;;14.52;;
35048;SDS011;21236;48.740;-3.446;2022-12-18T06:50:14;27.95;;;13.57;;
35048;SDS011;21236;48.740;-3.446;2022-12-18T06:52:40;30.33;;;15.02;;
35048;SDS011;21236;48.740;-3.446;2022-12-18T06:55:07;32.35;;;14.88;;
35048;SDS011;21236;48.740;-3.446;2022-12-18T06:57:34;32.08;;;14.60;;
35048;SDS011;21236;48.740;-3.446;2022-12-18T07:00:00;23.17;;;12.27;;
35048;SDS011;21236;48.740;-3.446;2022-12-18T07:02:26;24.33;;;12.50;;
35048;SDS011;21236;48.740;-3.446;2022-12-18T07:04:52;26.25;;;12.82;;
35048;SDS011;21236;48.740;-3.446;2022-12-18T07:07:18;42.00;;;17.55;;
35048;SDS011;21236;48.740;-3.446;2022-12-18T07:09:44;46.05;;;20.92;;
35048;SDS011;21236;48.740;-3.446;2022-12-18T07:12:10;39.03;;;19.85;;
35048;SDS011;21236;48.740;-3.446;2022-12-18T07:14:36;34.60;;;16.02;;
35048;SDS011;21236;48.740;-3.446;2022-12-18T07:17:02;32.13;;;17.88;;
35048;SDS011;21236;48.740;-3.446;2022-12-18T07:19:29;34.03;;;16.50;;
35048;SDS011;21236;48.740;-3.446;2022-12-18T07:21:55;33.05;;;17.17;;
35048;SDS011;21236;48.740;-3.446;2022-12-18T07:24:21;29.70;;;16.30;;
35048;SDS011;21236;48.740;-3.446;2022-12-18T07:26:47;31.88;;;15.93;;
35048;SDS011;21236;48.740;-3.446;2022-12-18T07:29:13;31.38;;;16.80;;
35048;SDS011;21236;48.740;-3.446;2022-12-18T07:31:39;29.85;;;15.35;;
35048;SDS011;21236;48.740;-3.446;2022-12-18T07:34:09;20.55;;;12.45;;
35048;SDS011;21236;48.740;-3.446;2022-12-18T07:36:35;29.02;;;19.90;;
35048;SDS011;21236;48.740;-3.446;2022-12-18T07:39:01;22.30;;;12.95;;
35048;SDS011;21236;48.740;-3.446;2022-12-18T07:41:28;25.00;;;13.88;;
35048;SDS011;21236;48.740;-3.446;2022-12-18T07:43:54;22.83;;;11.38;;
35048;SDS011;21236;48.740;-3.446;2022-12-18T07:46:20;15.63;;;10.70;;
35048;SDS011;21236;48.740;-3.446;2022-12-18T07:48:46;16.63;;;9.35;;
35048;SDS011;21236;48.740;-3.446;2022-12-18T07:51:12;18.88;;;9.15;;
35048;SDS011;21236;48.740;-3.446;2022-12-18T07:53:39;18.80;;;8.73;;
35048;SDS011;21236;48.740;-3.446;2022-12-18T07:56:06;15.55;;;8.90;;
35048;SDS011;21236;48.740;-3.446;2022-12-18T07:58:33;18.77;;;8.27;;
35048;SDS011;21236;48.740;-3.446;2022-12-18T08:01:06;17.17;;;10.63;;
35048;SDS011;21236;48.740;-3.446;2022-12-18T08:03:32;17.80;;;9.25;;
35048;SDS011;21236;48.740;-3.446;2022-12-18T08:06:02;19.75;;;9.75;;
35048;SDS011;21236;48.740;-3.446;2022-12-18T08:08:28;15.50;;;8.07;;
35048;SDS011;21236;48.740;-3.446;2022-12-18T08:10:55;15.48;;;9.07;;
35048;SDS011;21236;48.740;-3.446;2022-12-18T08:13:21;14.18;;;7.95;;
35048;SDS011;21236;48.740;-3.446;2022-12-18T08:15:57;18.60;;;9.80;;
35048;SDS011;21236;48.740;-3.446;2022-12-18T08:18:23;11.20;;;7.28;;
35048;SDS011;21236;48.740;-3.446;2022-12-18T08:20:50;11.15;;;6.65;;
35048;SDS011;21236;48.740;-3.446;2022-12-18T08:23:16;10.45;;;6.25;;
35048;SDS011;21236;48.740;-3.446;2022-12-18T08:25:42;14.23;;;6.97;;
35048;SDS011;21236;48.740;-3.446;2022-12-18T08:28:09;12.05;;;6.70;;
35048;SDS011;21236;48.740;-3.446;2022-12-18T08:30:35;17.23;;;7.82;;
35048;SDS011;21236;48.740;-3.446;2022-12-18T08:33:01;10.85;;;6.55;;
35048;SDS011;21236;48.740;-3.446;2022-12-18T08:35:27;12.75;;;5.97;;
35048;SDS011;21236;48.740;-3.446;2022-12-18T08:37:54;9.50;;;5.95;;
35048;SDS011;21236;48.740;-3.446;2022-12-18T08:40:20;11.40;;;7.18;;
35048;SDS011;21236;48.740;-3.446;2022-12-18T08:42:46;11.50;;;7.97;;
35048;SDS011;21236;48.740;-3.446;2022-12-18T08:45:30;23.45;;;14.82;;
35048;SDS011;21236;48.740;-3.446;2022-12-18T08:47:57;11.85;;;7.03;;
35048;SDS011;21236;48.740;-3.446;2022-12-18T08:50:23;12.07;;;6.60;;
35048;SDS011;21236;48.740;-3.446;2022-12-18T08:52:49;14.95;;;7.60;;
35048;SDS011;21236;48.740;-3.446;2022-12-18T08:55:15;13.45;;;8.43;;
35048;SDS011;21236;48.740;-3.446;2022-12-18T08:57:41;11.20;;;7.72;;
35048;SDS011;21236;48.740;-3.446;2022-12-18T09:00:07;11.35;;;6.68;;
35048;SDS011;21236;48.740;-3.446;2022-12-18T09:02:34;22.67;;;14.18;;
35048;SDS011;21236;48.740;-3.446;2022-12-18T09:05:00;16.30;;;9.55;;
35048;SDS011;21236;48.740;-3.446;2022-12-18T09:07:26;15.52;;;7.97;;
35048;SDS011;21236;48.740;-3.446;2022-12-18T09:09:52;11.13;;;7.30;;
35048;SDS011;21236;48.740;-3.446;2022-12-18T09:12:18;16.15;;;8.35;;
35048;SDS011;21236;48.740;-3.446;2022-12-18T09:14:44;14.95;;;7.65;;
35048;SDS011;21236;48.740;-3.446;2022-12-18T09:17:10;13.02;;;8.52;;
35048;SDS011;21236;48.740;-3.446;2022-12-18T09:19:37;13.35;;;6.88;;
35048;SDS011;21236;48.740;-3.446;2022-12-18T09:22:03;14.45;;;8.82;;
35048;SDS011;21236;48.740;-3.446;2022-12-18T09:24:29;18.52;;;9.48;;
35048;SDS011;21236;48.740;-3.446;2022-12-18T09:26:55;18.50;;;10.90;;
35048;SDS011;21236;48.740;-3.446;2022-12-18T09:29:21;21.48;;;10.32;;
35048;SDS011;21236;48.740;-3.446;2022-12-18T09:31:47;12.60;;;6.63;;
35048;SDS011;21236;48.740;-3.446;2022-12-18T09:34:14;11.18;;;7.38;;
35048;SDS011;21236;48.740;-3.446;2022-12-18T09:36:41;15.50;;;9.25;;
35048;SDS011;21236;48.740;-3.446;2022-12-18T09:39:08;12.40;;;7.00;;
35048;SDS011;21236;48.740;-3.446;2022-12-18T09:44:29;12.27;;;7.55;;
35048;SDS011;21236;48.740;-3.446;2022-12-18T09:47:10;12.07;;;7.20;;
35048;SDS011;21236;48.740;-3.446;2022-12-18T09:49:48;13.52;;;7.93;;
35048;SDS011;21236;48.740;-3.446;2022-12-18T09:52:17;15.77;;;8.57;;
35048;SDS011;21236;48.740;-3.446;2022-12-18T09:54:46;11.27;;;6.25;;
35048;SDS011;21236;48.740;-3.446;2022-12-18T09:57:18;11.07;;;5.05;;
35048;SDS011;21236;48.740;-3.446;2022-12-18T09:59:53;8.32;;;4.70;;
35048;SDS011;21236;48.740;-3.446;2022-12-18T10:02:21;7.03;;;4.85;;
35048;SDS011;21236;48.740;-3.446;2022-12-18T10:04:51;7.60;;;4.25;;
35048;SDS011;21236;48.740;-3.446;2022-12-18T10:07:26;10.23;;;4.38;;
35048;SDS011;21236;48.740;-3.446;2022-12-18T10:12:25;12.95;;;7.05;;
35048;SDS011;21236;48.740;-3.446;2022-12-18T10:15:18;10.15;;;5.95;;
35048;SDS011;21236;48.740;-3.446;2022-12-18T10:17:47;8.50;;;4.63;;
35048;SDS011;21236;48.740;-3.446;2022-12-18T10:25:25;15.23;;;8.05;;
35048;SDS011;21236;48.740;-3.446;2022-12-18T10:27:56;9.55;;;5.13;;
35048;SDS011;21236;48.740;-3.446;2022-12-18T10:30:23;9.32;;;5.50;;
35048;SDS011;21236;48.740;-3.446;2022-12-18T10:32:50;21.88;;;8.73;;
35048;SDS011;21236;48.740;-3.446;2022-12-18T10:35:21;8.50;;;5.18;;
35048;SDS011;21236;48.740;-3.446;2022-12-18T10:40:31;10.75;;;5.57;;
35048;SDS011;21236;48.740;-3.446;2022-12-18T10:43:20;13.60;;;5.68;;
35048;SDS011;21236;48.740;-3.446;2022-12-18T10:45:44;9.15;;;4.95;;
35048;SDS011;21236;48.740;-3.446;2022-12-18T10:48:23;9.00;;;5.05;;
35048;SDS011;21236;48.740;-3.446;2022-12-18T10:50:50;8.68;;;4.88;;
35048;SDS011;21236;48.740;-3.446;2022-12-18T10:53:21;9.50;;;4.32;;
35048;SDS011;21236;48.740;-3.446;2022-12-18T10:55:48;6.10;;;4.47;;
35048;SDS011;21236;48.740;-3.446;2022-12-18T11:01:11;7.82;;;4.32;;
35048;SDS011;21236;48.740;-3.446;2022-12-18T11:06:23;8.75;;;4.40;;
35048;SDS011;21236;48.740;-3.446;2022-12-18T11:11:25;7.07;;;3.85;;
35048;SDS011;21236;48.740;-3.446;2022-12-18T11:14:14;7.75;;;4.93;;
35048;SDS011;21236;48.740;-3.446;2022-12-18T11:16:46;6.25;;;3.95;;
35048;SDS011;21236;48.740;-3.446;2022-12-18T11:21:39;7.38;;;4.07;;
35048;SDS011;21236;48.740;-3.446;2022-12-18T11:24:07;7.93;;;3.70;;
35048;SDS011;21236;48.740;-3.446;2022-12-18T11:26:41;5.40;;;3.28;;
35048;SDS011;21236;48.740;-3.446;2022-12-18T11:29:09;6.65;;;3.58;;
35048;SDS011;21236;48.740;-3.446;2022-12-18T11:31:36;5.18;;;3.40;;
35048;SDS011;21236;48.740;-3.446;2022-12-18T11:34:09;6.03;;;3.50;;
35048;SDS011;21236;48.740;-3.446;2022-12-18T11:36:44;5.20;;;3.30;;
35048;SDS011;21236;48.740;-3.446;2022-12-18T11:39:54;4.63;;;2.90;;
35048;SDS011;21236;48.740;-3.446;2022-12-18T11:42:10;5.05;;;3.45;;
35048;SDS011;21236;48.740;-3.446;2022-12-18T11:47:15;6.30;;;2.90;;
35048;SDS011;21236;48.740;-3.446;2022-12-18T11:49:45;5.22;;;2.90;;
35048;SDS011;21236;48.740;-3.446;2022-12-18T11:54:42;4.50;;;2.70;;
35048;SDS011;21236;48.740;-3.446;2022-12-18T12:07:54;4.30;;;2.50;;
35048;SDS011;21236;48.740;-3.446;2022-12-18T12:17:59;3.00;;;2.15;;
35048;SDS011;21236;48.740;-3.446;2022-12-18T12:25:31;3.05;;;2.05;;
35048;SDS011;21236;48.740;-3.446;2022-12-18T12:33:16;2.75;;;2.05;;
35048;SDS011;21236;48.740;-3.446;2022-12-18T12:36:02;6.97;;;2.17;;
35048;SDS011;21236;48.740;-3.446;2022-12-18T12:38:43;3.45;;;1.50;;
35048;SDS011;21236;48.740;-3.446;2022-12-18T12:41:14;2.55;;;1.80;;
35048;SDS011;21236;48.740;-3.446;2022-12-18T12:44:03;3.95;;;1.55;;
35048;SDS011;21236;48.740;-3.446;2022-12-18T12:46:31;5.43;;;2.17;;
35048;SDS011;21236;48.740;-3.446;2022-12-18T12:48:59;2.92;;;1.98;;
35048;SDS011;21236;48.740;-3.446;2022-12-18T12:51:36;6.13;;;2.25;;
35048;SDS011;21236;48.740;-3.446;2022-12-18T12:54:05;2.15;;;1.77;;
35048;SDS011;21236;48.740;-3.446;2022-12-18T12:56:36;2.20;;;1.70;;
35048;SDS011;21236;48.740;-3.446;2022-12-18T13:01:41;4.60;;;2.17;;
35048;SDS011;21236;48.740;-3.446;2022-12-18T13:04:21;4.88;;;2.30;;
35048;SDS011;21236;48.740;-3.446;2022-12-18T13:06:51;3.45;;;1.90;;
35048;SDS011;21236;48.740;-3.446;2022-12-18T13:09:19;5.95;;;1.90;;
35048;SDS011;21236;48.740;-3.446;2022-12-18T13:11:46;2.97;;;1.80;;
35048;SDS011;21236;48.740;-3.446;2022-12-18T13:14:32;3.17;;;2.05;;
35048;SDS011;21236;48.740;-3.446;2022-12-18T13:19:44;3.80;;;2.22;;
35048;SDS011;21236;48.740;-3.446;2022-12-18T13:22:23;3.13;;;2.20;;
35048;SDS011;21236;48.740;-3.446;2022-12-18T13:24:50;3.80;;;2.08;;
35048;SDS011;21236;48.740;-3.446;2022-12-18T13:30:01;5.72;;;1.75;;
35048;SDS011;21236;48.740;-3.446;2022-12-18T13:32:27;4.15;;;2.20;;
35048;SDS011;21236;48.740;-3.446;2022-12-18T13:37:55;8.40;;;2.17;;
35048;SDS011;21236;48.740;-3.446;2022-12-18T13:41:04;3.05;;;1.88;;
35048;SDS011;21236;48.740;-3.446;2022-12-18T13:46:17;3.22;;;2.40;;
35048;SDS011;21236;48.740;-3.446;2022-12-18T13:48:33;5.35;;;2.42;;
35048;SDS011;21236;48.740;-3.446;2022-12-18T13:51:06;6.43;;;2.63;;
35048;SDS011;21236;48.740;-3.446;2022-12-18T13:53:42;6.63;;;2.50;;
35048;SDS011;21236;48.740;-3.446;2022-12-18T13:56:09;4.55;;;2.45;;
35048;SDS011;21236;48.740;-3.446;2022-12-18T13:58:35;5.32;;;2.60;;
35048;SDS011;21236;48.740;-3.446;2022-12-18T14:01:02;5.05;;;2.33;;
35048;SDS011;21236;48.740;-3.446;2022-12-18T14:03:29;5.72;;;2.50;;
35048;SDS011;21236;48.740;-3.446;2022-12-18T14:06:01;5.43;;;1.83;;
35048;SDS011;21236;48.740;-3.446;2022-12-18T14:08:31;5.00;;;2.10;;
35048;SDS011;21236;48.740;-3.446;2022-12-18T14:10:58;5.50;;;2.40;;
35048;SDS011;21236;48.740;-3.446;2022-12-18T14:13:30;9.07;;;2.25;;
35048;SDS011;21236;48.740;-3.446;2022-12-18T14:16:01;5.18;;;2.50;;
35048;SDS011;21236;48.740;-3.446;2022-12-18T14:21:35;3.22;;;1.92;;
35048;SDS011;21236;48.740;-3.446;2022-12-18T14:24:04;2.40;;;1.67;;
35048;SDS011;21236;48.740;-3.446;2022-12-18T14:26:31;3.60;;;1.75;;
35048;SDS011;21236;48.740;-3.446;2022-12-18T14:29:14;4.55;;;1.63;;
35048;SDS011;21236;48.740;-3.446;2022-12-18T14:31:43;3.10;;;1.95;;
35048;SDS011;21236;48.740;-3.446;2022-12-18T14:34:16;5.72;;;2.05;;
35048;SDS011;21236;48.740;-3.446;2022-12-18T14:36:51;5.88;;;2.03;;
35048;SDS011;21236;48.740;-3.446;2022-12-18T14:39:20;8.10;;;2.22;;
35048;SDS011;21236;48.740;-3.446;2022-12-18T14:41:48;3.90;;;2.55;;
35048;SDS011;21236;48.740;-3.446;2022-12-18T14:44:15;6.05;;;2.10;;
35048;SDS011;21236;48.740;-3.446;2022-12-18T14:46:45;7.72;;;1.83;;
35048;SDS011;21236;48.740;-3.446;2022-12-18T14:49:21;4.35;;;2.05;;
35048;SDS011;21236;48.740;-3.446;2022-12-18T14:52:34;4.47;;;1.70;;
35048;SDS011;21236;48.740;-3.446;2022-12-18T14:55:01;2.60;;;1.70;;
35048;SDS011;21236;48.740;-3.446;2022-12-18T14:57:35;2.78;;;1.40;;
35048;SDS011;21236;48.740;-3.446;2022-12-18T15:00:07;4.38;;;2.05;;
35048;SDS011;21236;48.740;-3.446;2022-12-18T15:02:37;2.78;;;1.52;;
35048;SDS011;21236;48.740;-3.446;2022-12-18T15:05:05;7.55;;;2.22;;
35048;SDS011;21236;48.740;-3.446;2022-12-18T15:07:42;7.05;;;2.05;;
35048;SDS011;21236;48.740;-3.446;2022-12-18T15:10:27;4.50;;;1.35;;
35048;SDS011;21236;48.740;-3.446;2022-12-18T15:20:31;7.90;;;3.60;;
35048;SDS011;21236;48.740;-3.446;2022-12-18T15:22:58;8.23;;;1.95;;
35048;SDS011;21236;48.740;-3.446;2022-12-18T15:25:35;4.72;;;1.70;;
35048;SDS011;21236;48.740;-3.446;2022-12-18T15:28:03;6.47;;;2.10;;
35048;SDS011;21236;48.740;-3.446;2022-12-18T15:30:33;7.07;;;2.17;;
35048;SDS011;21236;48.740;-3.446;2022-12-18T15:35:45;6.13;;;1.88;;
35048;SDS011;21236;48.740;-3.446;2022-12-18T15:38:12;4.68;;;1.58;;
35048;SDS011;21236;48.740;-3.446;2022-12-18T15:40:39;4.65;;;1.45;;
35048;SDS011;21236;48.740;-3.446;2022-12-18T15:43:07;2.53;;;1.48;;
35048;SDS011;21236;48.740;-3.446;2022-12-18T15:45:54;4.80;;;1.92;;
35048;SDS011;21236;48.740;-3.446;2022-12-18T15:48:22;2.47;;;1.30;;
35048;SDS011;21236;48.740;-3.446;2022-12-18T15:50:52;4.65;;;1.60;;
35048;SDS011;21236;48.740;-3.446;2022-12-18T15:53:27;6.53;;;1.50;;
35048;SDS011;21236;48.740;-3.446;2022-12-18T15:55:55;10.50;;;5.78;;
35048;SDS011;21236;48.740;-3.446;2022-12-18T15:58:40;7.03;;;2.90;;
35048;SDS011;21236;48.740;-3.446;2022-12-18T16:01:07;9.05;;;3.10;;
35048;SDS011;21236;48.740;-3.446;2022-12-18T16:03:37;6.63;;;2.08;;
35048;SDS011;21236;48.740;-3.446;2022-12-18T16:06:04;2.55;;;1.75;;
35048;SDS011;21236;48.740;-3.446;2022-12-18T16:08:31;6.43;;;1.75;;
35048;SDS011;21236;48.740;-3.446;2022-12-18T16:10:57;2.80;;;1.98;;
35048;SDS011;21236;48.740;-3.446;2022-12-18T16:13:24;3.40;;;1.60;;
35048;SDS011;21236;48.740;-3.446;2022-12-18T16:15:54;6.43;;;3.22;;
35048;SDS011;21236;48.740;-3.446;2022-12-18T16:18:21;3.42;;;2.22;;
35048;SDS011;21236;48.740;-3.446;2022-12-18T16:20:51;3.10;;;1.85;;
35048;SDS011;21236;48.740;-3.446;2022-12-18T16:23:18;4.03;;;1.48;;
35048;SDS011;21236;48.740;-3.446;2022-12-18T16:25:52;2.35;;;1.58;;
35048;SDS011;21236;48.740;-3.446;2022-12-18T16:28:22;2.25;;;1.50;;
35048;SDS011;21236;48.740;-3.446;2022-12-18T16:30:49;2.60;;;1.67;;
35048;SDS011;21236;48.740;-3.446;2022-12-18T16:33:15;3.17;;;1.90;;